Latest Weather Observations for Kurnell

IDN60801

Issued at 12:33 pm EST Thursday 25 August 2016 (issued every 30 minutes, with the page automatically refreshed every 10 minutes)

About weather observations | Map of weather stations | Latest weather observations for NSW | Other Formats
Station Details ID: 066043 Name: KURNELL AWS Lat: -34.00 Lon: 151.21 Height: 4.0 m
Data from the previous 72 hours. | See also: Recent months for locations in New South Wales
Date/Time
EST
Temp
°C
App
Temp
°C
Dew
Point
°C
Rel
Hum
%
Delta-T
°C
Wind Press
QNH
hPa
Press
MSL
hPa
Rain since
9am
mm
Dir  Spd
km/h
Gust
km/h
Spd
kts
Gust
kts
25/12:30pm - - - - - SSW 30 39 16 21 - - -
25/12:00pm - - - - - SW 24 33 13 18 - - -
25/11:30am - - - - - SW 28 39 15 21 - - -
25/11:00am - - - - - WSW 28 39 15 21 - - -
25/10:30am - - - - - W 24 33 13 18 - - -
25/10:00am - - - - - W 28 32 15 17 - - -
25/09:30am - - - - - W 30 35 16 19 - - -
25/09:00am - - - - - W 30 35 16 19 - - -
25/08:30am - - - - - W 26 32 14 17 - - -
25/08:00am - - - - - W 28 32 15 17 - - -
25/07:30am - - - - - W 26 30 14 16 - - -
25/07:00am - - - - - W 24 28 13 15 - - -
25/06:30am - - - - - W 26 30 14 16 - - -
25/06:00am - - - - - W 22 30 12 16 - - -
25/05:30am - - - - - W 26 32 14 17 - - -
25/05:00am - - - - - WSW 24 32 13 17 - - -
25/04:30am - - - - - WSW 22 30 12 16 - - -
25/04:00am - - - - - WSW 24 30 13 16 - - -
25/03:30am - - - - - WSW 26 32 14 17 - - -
25/03:00am - - - - - WSW 24 32 13 17 - - -
25/02:30am - - - - - W 30 35 16 19 - - -
25/02:00am - - - - - WSW 26 32 14 17 - - -
25/01:30am - - - - - WSW 20 28 11 15 - - -
25/01:00am - - - - - SSW 20 32 11 17 - - -
25/12:30am - - - - - SW 32 52 17 28 - - -
25/12:29am - - - - - SW 32 52 17 28 - - -
25/12:00am - - - - - SW 32 41 17 22 - - -
 
Date/Time
EST
Temp
°C
App
Temp
°C
Dew
Point
°C
Rel
Hum
%
Delta-T
°C
Wind Press
QNH
hPa
Press
MSL
hPa
Rain since
9am
mm
Dir  Spd
km/h
Gust
km/h
Spd
kts
Gust
kts
24/11:30pm - - - - - SSW 30 43 16 23 - - -
24/11:07pm - - - - - SSW 28 46 15 25 - - -
24/11:00pm - - - - - SSW 24 35 13 19 - - -
24/10:30pm - - - - - SSW 26 37 14 20 - - -
24/10:00pm - - - - - SSW 30 39 16 21 - - -
24/09:30pm - - - - - S 32 43 17 23 - - -
24/09:03pm - - - - - S 35 54 19 29 - - -
24/09:00pm - - - - - S 37 54 20 29 - - -
24/08:30pm - - - - - S 35 56 19 30 - - -
24/08:02pm - - - - - SSW 41 59 22 32 - - -
24/08:00pm - - - - - S 43 59 23 32 - - -
24/07:30pm - - - - - S 37 56 20 30 - - -
24/07:27pm - - - - - S 37 56 20 30 - - -
24/07:00pm - - - - - S 30 43 16 23 - - -
24/06:42pm - - - - - SSE 30 48 16 26 - - -
24/06:30pm - - - - - SSE 22 33 12 18 - - -
24/06:00pm - - - - - ESE 28 43 15 23 - - -
24/05:30pm - - - - - ESE 30 37 16 20 - - -
24/05:00pm - - - - - ESE 33 48 18 26 - - -
24/04:30pm - - - - - ESE 24 43 13 23 - - -
24/04:00pm - - - - - ESE 19 22 10 12 - - -
24/03:30pm - - - - - SE 22 32 12 17 - - -
24/03:00pm - - - - - SE 17 30 9 16 - - -
24/02:30pm - - - - - SE 26 33 14 18 - - -
24/02:00pm - - - - - SE 20 32 11 17 - - -
24/01:30pm - - - - - ESE 26 35 14 19 - - -
24/01:00pm - - - - - SE 24 33 13 18 - - -
24/12:30pm - - - - - SE 22 32 12 17 - - -
24/12:00pm - - - - - SE 24 32 13 17 - - -
24/11:30am - - - - - SE 24 33 13 18 - - -
24/11:00am - - - - - ESE 19 26 10 14 - - -
24/10:38am - - - - - SE 24 39 13 21 - - -
24/10:30am - - - - - S 15 20 8 11 - - -
24/10:00am - - - - - S 19 26 10 14 - - -
24/09:30am - - - - - SSW 20 30 11 16 - - -
24/09:00am - - - - - SW 20 26 11 14 - - -
24/08:30am - - - - - SSW 17 24 9 13 - - -
24/08:00am - - - - - SE 20 30 11 16 - - -
24/07:30am - - - - - ESE 20 28 11 15 - - -
24/07:00am - - - - - SE 17 28 9 15 - - -
24/06:30am - - - - - ESE 24 35 13 19 - - -
24/06:00am - - - - - SE 19 32 10 17 - - -
24/05:30am - - - - - S 20 32 11 17 - - -
24/05:00am - - - - - SSE 19 26 10 14 - - -
24/04:30am - - - - - SE 22 32 12 17 - - -
24/04:00am - - - - - SSW 17 24 9 13 - - -
24/03:30am - - - - - S 15 19 8 10 - - -
24/03:00am - - - - - SSE 20 30 11 16 - - -
24/02:30am - - - - - SSE 20 30 11 16 - - -
24/02:00am - - - - - S 22 32 12 17 - - -
24/01:30am - - - - - S 22 30 12 16 - - -
24/01:00am - - - - - SSE 20 28 11 15 - - -
24/12:30am - - - - - SSE 19 30 10 16 - - -
24/12:00am - - - - - S 19 24 10 13 - - -
 
Date/Time
EST
Temp
°C
App
Temp
°C
Dew
Point
°C
Rel
Hum
%
Delta-T
°C
Wind Press
QNH
hPa
Press
MSL
hPa
Rain since
9am
mm
Dir  Spd
km/h
Gust
km/h
Spd
kts
Gust
kts
23/11:30pm - - - - - S 22 30 12 16 - - -
23/11:00pm - - - - - SSW 15 19 8 10 - - -
23/10:30pm - - - - - S 17 22 9 12 - - -
23/10:00pm - - - - - SW 17 24 9 13 - - -
23/09:30pm - - - - - SSW 26 33 14 18 - - -
23/09:00pm - - - - - S 13 17 7 9 - - -
23/08:30pm - - - - - S 22 32 12 17 - - -
23/08:00pm - - - - - SSW 17 22 9 12 - - -
23/07:30pm - - - - - SSW 19 26 10 14 - - -
23/07:00pm - - - - - SW 24 33 13 18 - - -
23/06:30pm - - - - - SW 20 30 11 16 - - -
23/06:00pm - - - - - SSW 30 43 16 23 - - -
23/05:30pm - - - - - SSW 32 43 17 23 - - -
23/05:00pm - - - - - SSW 24 37 13 20 - - -
23/04:30pm - - - - - SSW 26 35 14 19 - - -
23/04:00pm - - - - - SSW 26 35 14 19 - - -
23/03:30pm - - - - - SSW 26 32 14 17 - - -
23/03:00pm - - - - - SSW 30 41 16 22 - - -
23/02:30pm - - - - - SSW 30 39 16 21 - - -
23/02:00pm - - - - - SSW 32 43 17 23 - - -
23/01:30pm - - - - - SW 32 48 17 26 - - -
23/01:00pm - - - - - SSW 35 44 19 24 - - -
23/12:30pm - - - - - SW 33 43 18 23 - - -
23/12:00pm - - - - - SW 33 43 18 23 - - -
23/11:30am - - - - - SW 33 48 18 26 - - -
23/11:00am - - - - - SW 28 35 15 19 - - -
23/10:30am - - - - - SW 26 37 14 20 - - -
23/10:00am - - - - - WNW 19 24 10 13 - - -
23/09:30am - - - - - NW 20 24 11 13 - - -
23/09:00am - - - - - NW 24 28 13 15 - - -
23/08:30am - - - - - W 22 26 12 14 - - -
23/08:00am - - - - - W 26 30 14 16 - - -
23/07:30am - - - - - W 24 28 13 15 - - -
23/07:00am - - - - - W 22 24 12 13 - - -
23/06:30am - - - - - W 24 28 13 15 - - -
23/06:00am - - - - - W 26 30 14 16 - - -
23/05:30am - - - - - W 32 35 17 19 - - -
23/05:00am - - - - - WNW 32 35 17 19 - - -
23/04:30am - - - - - WNW 30 35 16 19 - - -
23/04:00am - - - - - WNW 26 30 14 16 - - -
23/03:30am - - - - - WNW 26 32 14 17 - - -
23/03:00am - - - - - WNW 20 26 11 14 - - -
23/02:30am - - - - - WNW 17 22 9 12 - - -
23/02:00am - - - - - WNW 20 26 11 14 - - -
23/01:30am - - - - - NW 13 15 7 8 - - -
23/01:00am - - - - - NW 15 19 8 10 - - -
23/12:30am - - - - - W 13 17 7 9 - - -
23/12:00am - - - - - WNW 17 19 9 10 - - -
 
Date/Time
EST
Temp
°C
App
Temp
°C
Dew
Point
°C
Rel
Hum
%
Delta-T
°C
Wind Press
QNH
hPa
Press
MSL
hPa
Rain since
9am
mm
Dir  Spd
km/h
Gust
km/h
Spd
kts
Gust
kts
22/11:30pm - - - - - W 17 19 9 10 - - -
22/11:00pm - - - - - W 15 17 8 9 - - -
22/10:30pm - - - - - W 15 19 8 10 - - -
22/10:00pm - - - - - W 20 24 11 13 - - -
22/09:30pm - - - - - W 24 35 13 19 - - -
22/09:00pm - - - - - W 20 26 11 14 - - -
22/08:30pm - - - - - WNW 17 20 9 11 - - -
22/08:00pm - - - - - W 15 19 8 10 - - -
22/07:30pm - - - - - W 15 19 8 10 - - -
22/07:00pm - - - - - W 19 24 10 13 - - -
22/06:30pm - - - - - W 22 26 12 14 - - -
22/06:00pm - - - - - W 17 26 9 14 - - -
22/05:30pm - - - - - WNW 15 19 8 10 - - -
22/05:00pm - - - - - NW 17 19 9 10 - - -
22/04:30pm - - - - - NW 20 26 11 14 - - -
22/04:00pm - - - - - WNW 19 24 10 13 - - -
22/03:30pm - - - - - WNW 26 30 14 16 - - -
22/03:00pm - - - - - NW 33 44 18 24 - - -
22/02:48pm - - - - - NW 32 50 17 27 - - -
22/02:33pm - - - - - WNW 37 56 20 30 - - -
22/02:30pm - - - - - WNW 39 56 21 30 - - -
22/02:23pm - - - - - WNW 35 54 19 29 - - -
22/02:15pm - - - - - WNW 39 56 21 30 - - -
22/02:11pm - - - - - WNW 35 56 19 30 - - -
22/02:09pm - - - - - WNW 30 52 16 28 - - -
22/02:00pm - - - - - W 20 30 11 16 - - -
22/01:30pm - - - - - N 7 13 4 7 - - -
22/01:00pm - - - - - WNW 19 24 10 13 - - -

Other Formats:

Comma delimited format used in spreadsheet applications
http://www.bom.gov.au/fwo/IDN60801/IDN60801.95756.axf

JavaScript Object Notation format (JSON) in row-major order
http://www.bom.gov.au/fwo/IDN60801/IDN60801.95756.json